createdAt,value
2023-02-24T00:00:38.712Z,7.13
2023-02-24T00:03:11.572Z,7.03
2023-02-24T00:05:44.536Z,7.08
2023-02-24T00:08:11.187Z,7.04
2023-02-24T00:10:37.854Z,6.96
2023-02-24T00:13:04.586Z,6.95
2023-02-24T00:15:31.121Z,6.93
2023-02-24T00:17:58.517Z,6.96
2023-02-24T00:20:25.309Z,6.92
2023-02-24T00:22:51.955Z,6.93
2023-02-24T00:25:18.498Z,6.85
2023-02-24T00:27:45.005Z,6.81
2023-02-24T00:30:12.268Z,6.88
2023-02-24T00:32:39.109Z,6.72
2023-02-24T00:35:06.766Z,6.78
2023-02-24T00:37:33.354Z,6.74
2023-02-24T00:40:00.052Z,6.77
2023-02-24T00:42:27.162Z,6.69
2023-02-24T00:44:54.282Z,6.62
2023-02-24T00:47:22.536Z,6.62
2023-02-24T00:49:50.490Z,6.63
2023-02-24T00:52:20.220Z,6.62
2023-02-24T00:54:49.379Z,6.62
2023-02-24T00:57:18.663Z,6.63
2023-02-24T00:59:48.211Z,6.62
2023-02-24T01:02:15.393Z,6.62
2023-02-24T01:04:44.508Z,6.58
2023-02-24T01:07:11.747Z,6.55
2023-02-24T01:09:40.371Z,6.56
2023-02-24T01:12:38.480Z,6.52
2023-02-24T01:15:09.243Z,6.53
2023-02-24T01:17:37.524Z,6.52
2023-02-24T01:20:16.695Z,6.47
2023-02-24T01:22:45.093Z,6.62
2023-02-24T01:25:12.260Z,6.52
2023-02-24T01:27:40.407Z,6.54
2023-02-24T01:30:16.431Z,6.46
2023-02-24T01:32:44.186Z,6.45
2023-02-24T01:35:12.331Z,6.42
2023-02-24T01:37:39.803Z,6.41
2023-02-24T01:40:12.079Z,6.40
2023-02-24T01:42:41.771Z,6.40
2023-02-24T01:45:14.457Z,6.46
2023-02-24T01:47:42.208Z,6.52
2023-02-24T01:50:10.684Z,6.53
2023-02-24T01:52:38.219Z,6.53
2023-02-24T01:55:11.085Z,6.47
2023-02-24T01:57:39.253Z,6.52
2023-02-24T02:00:12.469Z,6.48
2023-02-24T02:02:42.623Z,6.49
2023-02-24T02:05:10.131Z,6.49
2023-02-24T02:07:40.099Z,6.46
2023-02-24T02:10:08.477Z,6.40
2023-02-24T02:12:37.831Z,6.42
2023-02-24T02:15:06.893Z,6.43
2023-02-24T02:18:10.970Z,6.33
2023-02-24T02:21:25.343Z,6.42
2023-02-24T02:24:14.882Z,6.36
2023-02-24T02:26:47.951Z,6.38
2023-02-24T02:29:56.406Z,6.39
2023-02-24T02:32:52.227Z,6.37
2023-02-24T02:35:26.230Z,6.37
2023-02-24T02:37:59.519Z,6.37
2023-02-24T02:40:48.772Z,6.42
2023-02-24T02:43:50.427Z,6.39
2023-02-24T02:46:35.105Z,6.35
2023-02-24T02:49:26.140Z,6.36
2023-02-24T02:51:57.492Z,6.38
2023-02-24T02:55:00.494Z,6.37
2023-02-24T02:57:30.896Z,6.34
2023-02-24T03:00:23.385Z,6.39
2023-02-24T03:02:55.508Z,6.41
2023-02-24T03:05:29.905Z,6.41
2023-02-24T03:07:59.211Z,6.46
2023-02-24T03:10:29.257Z,6.45
2023-02-24T03:13:01.942Z,6.47
2023-02-24T03:15:32.855Z,6.44
2023-02-24T03:18:10.719Z,6.46
2023-02-24T03:20:43.956Z,6.45
2023-02-24T03:23:22.030Z,6.41
2023-02-24T03:25:59.418Z,6.39
2023-02-24T03:28:35.861Z,6.40
2023-02-24T03:31:13.575Z,6.46
2023-02-24T03:33:48.977Z,6.55
2023-02-24T03:36:15.628Z,6.47
2023-02-24T03:38:43.499Z,6.41
2023-02-24T03:41:13.489Z,6.41
2023-02-24T03:43:45.124Z,6.47
2023-02-24T03:46:12.719Z,6.47
2023-02-24T03:48:46.988Z,6.46
2023-02-24T03:51:26.521Z,6.43
2023-02-24T03:54:16.286Z,6.46
2023-02-24T03:57:09.914Z,6.54
2023-02-24T03:59:56.186Z,6.55
2023-02-24T04:02:30.413Z,6.58
2023-02-24T04:05:03.446Z,6.45
2023-02-24T04:07:53.357Z,6.44
2023-02-24T04:10:28.094Z,6.40
2023-02-24T04:13:06.446Z,6.35
2023-02-24T04:15:44.107Z,6.41
2023-02-24T04:18:18.620Z,6.41
2023-02-24T04:20:51.289Z,6.34
2023-02-24T04:23:22.590Z,6.35
2023-02-24T04:25:53.460Z,6.40
2023-02-24T04:28:22.505Z,6.42
2023-02-24T04:30:53.243Z,6.31
2023-02-24T04:33:20.462Z,6.30
2023-02-24T04:35:50.681Z,6.21
2023-02-24T04:38:18.265Z,6.19
2023-02-24T04:40:45.320Z,5.98
2023-02-24T04:43:13.143Z,5.96
2023-02-24T04:45:40.423Z,5.86
2023-02-24T04:48:13.026Z,5.86
2023-02-24T04:50:42.328Z,5.86
2023-02-24T04:53:15.276Z,5.79
2023-02-24T04:55:49.085Z,5.78
2023-02-24T04:58:29.402Z,5.75
2023-02-24T05:00:56.626Z,5.80
2023-02-24T05:03:28.586Z,5.75
2023-02-24T05:06:02.598Z,5.69
2023-02-24T05:08:30.958Z,5.65
2023-02-24T05:10:58.883Z,5.60
2023-02-24T05:13:28.244Z,5.54
2023-02-24T05:15:56.866Z,5.49
2023-02-24T05:18:29.737Z,5.46
2023-02-24T05:21:15.681Z,5.45
2023-02-24T05:23:47.014Z,5.33
2023-02-24T05:26:18.663Z,5.27
2023-02-24T05:28:52.421Z,5.16
2023-02-24T05:31:26.499Z,5.11
2023-02-24T05:33:57.655Z,5.08
2023-02-24T05:36:26.060Z,4.99
2023-02-24T05:39:07.911Z,4.98
2023-02-24T05:41:36.551Z,5.03
2023-02-24T05:44:08.938Z,5.06
2023-02-24T05:46:41.706Z,5.01
2023-02-24T05:49:14.380Z,5.00
2023-02-24T05:51:43.672Z,5.06
2023-02-24T05:54:13.488Z,4.97
2023-02-24T05:56:43.878Z,4.96
2023-02-24T05:59:12.775Z,5.02
2023-02-24T06:01:47.528Z,4.87
2023-02-24T06:04:39.468Z,4.86
2023-02-24T06:07:21.049Z,4.87
2023-02-24T06:09:54.016Z,4.81
2023-02-24T06:12:26.231Z,4.84
2023-02-24T06:14:53.291Z,4.94
2023-02-24T06:17:21.909Z,5.00
2023-02-24T06:19:51.432Z,5.05
2023-02-24T06:22:21.453Z,4.98
2023-02-24T06:24:49.583Z,4.89
2023-02-24T06:27:21.786Z,4.93
2023-02-24T06:29:54.110Z,5.01
2023-02-24T06:32:26.942Z,4.97
2023-02-24T06:34:54.433Z,4.84
2023-02-24T06:37:23.140Z,4.81
2023-02-24T06:39:50.196Z,4.84
2023-02-24T06:42:17.207Z,4.86
2023-02-24T06:44:43.958Z,4.72
2023-02-24T06:47:14.811Z,4.77
2023-02-24T06:49:43.141Z,4.63
2023-02-24T06:52:11.978Z,4.65
2023-02-24T06:54:38.922Z,4.53
2023-02-24T06:57:05.702Z,4.57
2023-02-24T06:59:33.483Z,4.46
2023-02-24T07:02:03.615Z,4.43
2023-02-24T07:04:30.534Z,4.47
2023-02-24T07:07:03.409Z,4.55
2023-02-24T07:09:32.452Z,4.35
2023-02-24T07:12:02.753Z,4.37
2023-02-24T07:14:32.895Z,4.29
2023-02-24T07:17:00.672Z,4.30
2023-02-24T07:19:32.642Z,4.46
2023-02-24T07:22:02.331Z,4.44
2023-02-24T07:24:40.026Z,4.57
2023-02-24T07:27:09.574Z,4.61
2023-02-24T07:29:38.050Z,4.66
2023-02-24T07:32:09.081Z,4.74
2023-02-24T07:34:40.580Z,4.79
2023-02-24T07:37:08.750Z,4.83
2023-02-24T07:39:39.587Z,4.86
2023-02-24T07:42:08.969Z,4.84
2023-02-24T07:44:35.703Z,4.67
2023-02-24T07:47:08.065Z,4.65
2023-02-24T07:49:35.640Z,4.61
2023-02-24T07:52:02.369Z,4.66
2023-02-24T07:54:30.248Z,4.79
2023-02-24T07:56:59.352Z,4.77
2023-02-24T07:59:27.616Z,4.84
2023-02-24T08:01:56.135Z,4.88
2023-02-24T08:04:28.980Z,4.94
2023-02-24T08:06:56.625Z,5.07
2023-02-24T08:09:45.946Z,5.12
2023-02-24T08:12:18.360Z,5.28
2023-02-24T08:14:51.234Z,5.22
2023-02-24T08:17:20.989Z,5.43
2023-02-24T08:19:49.568Z,5.46
2023-02-24T08:22:19.798Z,5.55
2023-02-24T08:24:51.168Z,5.66
2023-02-24T08:27:21.942Z,5.73
2023-02-24T08:30:00.186Z,5.75
2023-02-24T08:32:43.764Z,5.71
2023-02-24T08:35:17.390Z,5.75
2023-02-24T08:37:47.283Z,5.87
2023-02-24T08:40:32.390Z,5.95
2023-02-24T08:43:01.243Z,5.83
2023-02-24T08:45:33.754Z,5.78
2023-02-24T08:48:18.399Z,5.67
2023-02-24T08:50:46.083Z,5.72
2023-02-24T08:53:19.335Z,5.77
2023-02-24T08:55:54.007Z,5.71
2023-02-24T08:58:27.174Z,5.74
2023-02-24T09:00:59.501Z,5.78
2023-02-24T09:03:28.498Z,5.92
2023-02-24T09:06:06.491Z,5.88
2023-02-24T09:08:35.350Z,5.82
2023-02-24T09:11:08.177Z,5.77
2023-02-24T09:13:43.231Z,5.83
2023-02-24T09:16:16.603Z,5.95
2023-02-24T09:18:43.273Z,6.02
2023-02-24T09:21:30.817Z,6.25
2023-02-24T09:23:57.329Z,6.07
2023-02-24T09:26:24.010Z,6.08
2023-02-24T09:28:55.117Z,6.18
2023-02-24T09:31:40.833Z,6.29
2023-02-24T09:34:10.554Z,6.35
2023-02-24T09:36:45.200Z,6.28
2023-02-24T09:39:14.881Z,6.46
2023-02-24T09:41:54.534Z,6.36
2023-02-24T09:44:34.528Z,6.41
2023-02-24T09:47:31.516Z,6.57
2023-02-24T09:50:04.607Z,6.15
2023-02-24T09:52:41.673Z,6.37
2023-02-24T09:55:36.003Z,6.98
2023-02-24T09:58:17.272Z,7.47
2023-02-24T10:00:58.269Z,7.54
2023-02-24T10:03:48.271Z,7.90
2023-02-24T10:06:21.113Z,8.03
2023-02-24T10:09:12.597Z,8.18
2023-02-24T10:11:55.732Z,8.22
2023-02-24T10:14:43.738Z,8.33
2023-02-24T10:17:25.372Z,8.17
2023-02-24T10:20:13.987Z,7.97
2023-02-24T10:22:52.923Z,8.19
2023-02-24T10:25:25.334Z,8.47
2023-02-24T10:28:06.031Z,8.57
2023-02-24T10:30:47.421Z,8.55
2023-02-24T10:33:18.272Z,8.66
2023-02-24T10:35:45.032Z,8.28
2023-02-24T10:38:12.090Z,8.53
2023-02-24T10:40:56.566Z,8.36
2023-02-24T10:43:31.955Z,8.34
2023-02-24T10:46:07.271Z,7.99
2023-02-24T10:48:42.574Z,7.71
2023-02-24T10:51:22.324Z,7.98
2023-02-24T10:54:10.318Z,8.04
2023-02-24T10:56:45.101Z,7.81
2023-02-24T10:59:25.352Z,8.02
2023-02-24T11:02:06.753Z,8.09
2023-02-24T11:04:55.893Z,8.12
2023-02-24T11:07:25.445Z,8.20
2023-02-24T11:10:12.272Z,8.26
2023-02-24T11:13:10.111Z,7.92
2023-02-24T11:16:08.292Z,7.55
2023-02-24T11:18:36.164Z,7.72
2023-02-24T11:21:06.269Z,7.77
2023-02-24T11:23:40.365Z,7.92
2023-02-24T11:26:27.567Z,7.78
2023-02-24T11:29:13.419Z,8.01
2023-02-24T11:31:45.840Z,7.58
2023-02-24T11:34:53.183Z,7.62
2023-02-24T11:37:43.415Z,7.37
2023-02-24T11:40:23.931Z,7.49
2023-02-24T11:43:13.958Z,7.75
2023-02-24T11:45:48.399Z,7.50
2023-02-24T11:48:27.458Z,7.50
2023-02-24T11:51:03.394Z,7.59
2023-02-24T11:53:32.938Z,7.66
2023-02-24T11:56:13.290Z,7.59
2023-02-24T11:58:51.382Z,7.40
2023-02-24T12:01:30.931Z,7.25
2023-02-24T12:04:10.785Z,7.30
2023-02-24T12:07:03.947Z,7.25
2023-02-24T12:09:50.401Z,7.41
2023-02-24T12:12:34.490Z,7.55
2023-02-24T12:15:10.639Z,7.53
2023-02-24T12:17:44.547Z,7.37
2023-02-24T12:20:29.200Z,7.42
2023-02-24T12:23:01.171Z,7.49
2023-02-24T12:25:47.365Z,7.43
2023-02-24T12:28:41.669Z,7.26
2023-02-24T12:31:38.000Z,7.50
2023-02-24T12:34:15.941Z,7.58
2023-02-24T12:36:51.940Z,7.68
2023-02-24T12:39:22.587Z,7.55
2023-02-24T12:42:25.029Z,7.59
2023-02-24T12:45:26.472Z,7.68
2023-02-24T12:47:53.039Z,7.65
2023-02-24T12:50:28.606Z,7.49
2023-02-24T12:53:09.472Z,7.56
2023-02-24T12:55:48.304Z,7.57
2023-02-24T12:58:25.222Z,7.42
2023-02-24T13:01:27.315Z,7.43
2023-02-24T13:04:12.967Z,7.52
2023-02-24T13:07:01.011Z,7.68
2023-02-24T13:09:55.853Z,7.48
2023-02-24T13:12:34.105Z,7.37
2023-02-24T13:15:01.199Z,7.31
2023-02-24T13:17:28.102Z,7.21
2023-02-24T13:19:55.945Z,7.19
2023-02-24T13:22:42.866Z,7.24
2023-02-24T13:25:09.449Z,7.02
2023-02-24T13:27:39.296Z,7.10
2023-02-24T13:30:12.221Z,7.17
2023-02-24T13:32:41.973Z,7.16
2023-02-24T13:35:18.069Z,7.16
2023-02-24T13:37:47.273Z,7.07
2023-02-24T13:40:24.061Z,7.08
2023-02-24T13:42:59.883Z,7.01
2023-02-24T13:45:39.899Z,7.06
2023-02-24T13:48:27.634Z,6.95
2023-02-24T13:51:19.807Z,6.78
2023-02-24T13:54:09.788Z,6.65
2023-02-24T13:57:24.739Z,6.41
2023-02-24T14:00:10.445Z,6.26
2023-02-24T14:02:44.405Z,6.09
2023-02-24T14:05:22.325Z,6.02
2023-02-24T14:07:50.376Z,5.76
2023-02-24T14:10:25.195Z,5.54
2023-02-24T14:13:08.389Z,5.10
2023-02-24T14:15:35.958Z,4.94
2023-02-24T14:18:05.304Z,4.67
2023-02-24T14:20:35.017Z,4.44
2023-02-24T14:23:02.525Z,4.43
2023-02-24T14:25:38.287Z,4.15
2023-02-24T14:28:05.016Z,4.13
2023-02-24T14:30:40.595Z,4.27
2023-02-24T14:33:08.617Z,4.30
2023-02-24T14:35:47.291Z,4.37
2023-02-24T14:38:30.979Z,4.46
2023-02-24T14:40:58.117Z,4.25
2023-02-24T14:43:25.170Z,4.12
2023-02-24T14:45:53.525Z,4.29
2023-02-24T14:48:24.495Z,4.25
2023-02-24T14:50:51.983Z,4.18
2023-02-24T14:53:22.306Z,4.06
2023-02-24T14:55:54.808Z,3.88
2023-02-24T14:58:37.079Z,3.95
2023-02-24T15:01:07.178Z,3.85
2023-02-24T15:03:37.950Z,3.81
2023-02-24T15:06:08.030Z,3.87
2023-02-24T15:08:48.780Z,3.79
2023-02-24T15:11:15.469Z,3.88
2023-02-24T15:13:45.941Z,3.76
2023-02-24T15:16:18.282Z,3.67
2023-02-24T15:18:51.378Z,3.69
2023-02-24T15:21:27.783Z,3.78
2023-02-24T15:24:02.186Z,3.70
2023-02-24T15:26:32.771Z,3.62
2023-02-24T15:29:03.452Z,3.60
2023-02-24T15:31:30.588Z,3.59
2023-02-24T15:34:00.516Z,3.71
2023-02-24T15:36:32.476Z,3.56
2023-02-24T15:39:17.456Z,3.68
2023-02-24T15:41:47.725Z,3.58
2023-02-24T15:44:32.720Z,3.60
2023-02-24T15:47:01.420Z,3.49
2023-02-24T15:49:28.165Z,3.51
2023-02-24T15:51:59.771Z,3.45
2023-02-24T15:54:34.553Z,3.34
2023-02-24T15:57:02.849Z,3.20
2023-02-24T15:59:29.896Z,3.24
2023-02-24T16:01:57.596Z,3.29
2023-02-24T16:04:24.597Z,3.30
2023-02-24T16:06:54.782Z,3.18
2023-02-24T16:09:37.005Z,3.16
2023-02-24T16:12:07.340Z,3.15
2023-02-24T16:14:34.356Z,3.19
2023-02-24T16:17:05.362Z,3.14
2023-02-24T16:19:32.180Z,3.04
2023-02-24T16:21:58.838Z,2.99
2023-02-24T16:24:25.448Z,3.00
2023-02-24T16:26:52.225Z,2.96
2023-02-24T16:29:18.896Z,3.01
2023-02-24T16:31:45.837Z,2.92
2023-02-24T16:34:15.375Z,2.92
2023-02-24T16:36:43.077Z,2.95
2023-02-24T16:39:12.647Z,2.87
2023-02-24T16:41:39.418Z,2.81
2023-02-24T16:44:06.001Z,2.81
2023-02-24T16:46:37.706Z,2.82
2023-02-24T16:49:08.306Z,2.80
2023-02-24T16:51:35.676Z,2.71
2023-02-24T16:54:02.437Z,2.81
2023-02-24T16:56:29.076Z,2.70
2023-02-24T16:58:55.693Z,2.66
2023-02-24T17:01:22.526Z,2.65
2023-02-24T17:03:51.401Z,2.70
2023-02-24T17:06:20.820Z,2.66
2023-02-24T17:08:49.394Z,2.69
2023-02-24T17:11:19.416Z,2.63
2023-02-24T17:13:46.324Z,2.67
2023-02-24T17:16:13.824Z,2.64
2023-02-24T17:18:40.606Z,2.71
2023-02-24T17:21:07.873Z,2.73
2023-02-24T17:23:34.493Z,2.70
2023-02-24T17:26:02.731Z,2.74
2023-02-24T17:28:29.718Z,2.78
2023-02-24T17:30:56.675Z,2.82
2023-02-24T17:33:23.349Z,2.75
2023-02-24T17:35:50.028Z,2.77
2023-02-24T17:38:19.834Z,2.85
2023-02-24T17:40:47.295Z,2.87
2023-02-24T17:43:14.300Z,2.89
2023-02-24T17:45:43.213Z,2.89
2023-02-24T17:48:10.796Z,2.79
2023-02-24T17:50:37.508Z,2.88
2023-02-24T17:53:04.109Z,2.88
2023-02-24T17:55:30.712Z,2.92
2023-02-24T17:58:00.110Z,2.89
2023-02-24T18:00:27.600Z,2.93
2023-02-24T18:02:54.309Z,2.88
2023-02-24T18:05:21.237Z,3.02
2023-02-24T18:07:48.575Z,3.07
2023-02-24T18:10:15.302Z,3.02
2023-02-24T18:12:41.920Z,2.98
2023-02-24T18:15:09.676Z,3.01
2023-02-24T18:17:37.531Z,3.12
2023-02-24T18:20:05.814Z,3.08
2023-02-24T18:22:32.508Z,3.08
2023-02-24T18:25:01.121Z,3.09
2023-02-24T18:27:27.918Z,3.17
2023-02-24T18:29:54.964Z,3.09
2023-02-24T18:32:22.070Z,3.16
2023-02-24T18:34:48.974Z,3.20
2023-02-24T18:37:15.781Z,3.22
2023-02-24T18:39:42.728Z,3.17
2023-02-24T18:42:09.894Z,3.15
2023-02-24T18:44:36.829Z,3.13
2023-02-24T18:47:09.540Z,3.18
2023-02-24T18:49:37.069Z,3.13
2023-02-24T18:52:05.531Z,3.26
2023-02-24T18:54:33.840Z,3.25
2023-02-24T18:57:00.605Z,3.25
2023-02-24T18:59:27.343Z,3.20
2023-02-24T19:01:56.923Z,3.18
2023-02-24T19:04:24.521Z,3.19
2023-02-24T19:06:51.247Z,3.19
2023-02-24T19:09:21.776Z,3.20
2023-02-24T19:11:49.651Z,3.24
2023-02-24T19:14:16.993Z,3.24
2023-02-24T19:16:43.906Z,3.24
2023-02-24T19:19:16.690Z,3.28
2023-02-24T19:21:48.558Z,3.22
2023-02-24T19:24:17.404Z,3.22
2023-02-24T19:26:46.028Z,3.16
2023-02-24T19:29:12.674Z,3.19
2023-02-24T19:31:39.811Z,3.15
2023-02-24T19:34:10.258Z,3.23
2023-02-24T19:36:37.650Z,3.15
2023-02-24T19:39:06.096Z,3.29
2023-02-24T19:41:32.955Z,3.26
2023-02-24T19:43:59.679Z,3.23
2023-02-24T19:46:26.975Z,3.28
2023-02-24T19:48:56.298Z,3.20
2023-02-24T19:51:24.298Z,3.19
2023-02-24T19:53:55.793Z,3.22
2023-02-24T19:56:28.829Z,3.21
2023-02-24T19:58:57.203Z,3.21
2023-02-24T20:01:25.077Z,3.20
2023-02-24T20:03:57.899Z,3.22
2023-02-24T20:06:31.766Z,3.13
2023-02-24T20:08:59.054Z,3.13
2023-02-24T20:11:26.189Z,3.15
2023-02-24T20:13:53.605Z,3.18
2023-02-24T20:16:23.823Z,3.23
2023-02-24T20:18:51.352Z,3.15
2023-02-24T20:21:17.964Z,3.15
2023-02-24T20:23:44.689Z,3.15
2023-02-24T20:26:16.643Z,3.22
2023-02-24T20:28:44.962Z,3.19
2023-02-24T20:31:16.123Z,3.22
2023-02-24T20:33:43.978Z,3.29
2023-02-24T20:36:13.833Z,3.29
2023-02-24T20:38:40.837Z,3.33
2023-02-24T20:41:07.640Z,3.33
2023-02-24T20:43:34.689Z,3.30
2023-02-24T20:46:15.077Z,3.32
2023-02-24T20:48:42.611Z,3.32
2023-02-24T20:51:15.513Z,3.34
2023-02-24T20:53:56.164Z,3.48
2023-02-24T20:56:24.729Z,3.34
2023-02-24T20:58:53.328Z,3.37
2023-02-24T21:01:21.226Z,3.33
2023-02-24T21:03:48.435Z,3.28
2023-02-24T21:06:16.417Z,3.43
2023-02-24T21:08:44.436Z,3.35
2023-02-24T21:11:13.070Z,3.39
2023-02-24T21:13:41.773Z,3.33
2023-02-24T21:16:09.665Z,3.30
2023-02-24T21:18:38.417Z,3.36
2023-02-24T21:21:06.276Z,3.34
2023-02-24T21:23:33.315Z,3.33
2023-02-24T21:26:00.184Z,3.34
2023-02-24T21:28:26.951Z,3.28
2023-02-24T21:30:53.781Z,3.33
2023-02-24T21:33:20.520Z,3.37
2023-02-24T21:36:03.362Z,3.39
2023-02-24T21:38:34.164Z,3.31
2023-02-24T21:41:07.469Z,3.37
2023-02-24T21:43:34.538Z,3.28
2023-02-24T21:46:02.802Z,3.39
2023-02-24T21:48:29.569Z,3.34
2023-02-24T21:51:05.141Z,3.31
2023-02-24T21:53:35.626Z,3.31
2023-02-24T21:56:27.055Z,3.31
2023-02-24T21:59:01.156Z,3.25
2023-02-24T22:01:30.423Z,3.28
2023-02-24T22:03:59.820Z,3.29
2023-02-24T22:06:30.269Z,3.23
2023-02-24T22:08:58.234Z,3.23
2023-02-24T22:11:24.955Z,3.26
2023-02-24T22:13:51.655Z,3.42
2023-02-24T22:16:21.968Z,3.24
2023-02-24T22:18:50.246Z,3.30
2023-02-24T22:21:19.532Z,3.33
2023-02-24T22:23:48.564Z,3.33
2023-02-24T22:26:16.899Z,3.33
2023-02-24T22:28:45.312Z,3.34
2023-02-24T22:31:14.310Z,3.28
2023-02-24T22:33:43.143Z,3.30
2023-02-24T22:36:21.733Z,3.25
2023-02-24T22:38:48.869Z,3.23
2023-02-24T22:41:21.826Z,3.21
2023-02-24T22:43:48.696Z,3.20
2023-02-24T22:46:18.105Z,3.27
2023-02-24T22:48:45.188Z,3.21
2023-02-24T22:51:13.021Z,3.18
2023-02-24T22:53:42.119Z,3.15
2023-02-24T22:56:11.519Z,3.09
2023-02-24T22:58:39.759Z,3.03
2023-02-24T23:01:22.337Z,3.07
2023-02-24T23:03:49.634Z,3.07
2023-02-24T23:06:22.611Z,2.97
2023-02-24T23:08:51.132Z,2.85
2023-02-24T23:11:32.001Z,2.87
2023-02-24T23:14:01.489Z,2.74
2023-02-24T23:16:31.965Z,2.72
2023-02-24T23:19:01.065Z,2.69
2023-02-24T23:21:38.061Z,2.73
2023-02-24T23:24:06.565Z,2.75
2023-02-24T23:26:38.507Z,2.68
2023-02-24T23:29:06.326Z,2.63
2023-02-24T23:31:33.576Z,2.68
2023-02-24T23:34:00.299Z,2.59
2023-02-24T23:36:26.849Z,2.60
2023-02-24T23:38:54.327Z,2.66
2023-02-24T23:41:21.076Z,2.60
2023-02-24T23:43:47.701Z,2.66
2023-02-24T23:46:14.508Z,2.80
2023-02-24T23:48:41.693Z,2.79
2023-02-24T23:51:13.159Z,2.78
2023-02-24T23:53:41.511Z,2.95
2023-02-24T23:56:10.178Z,2.85
2023-02-24T23:58:40.050Z,2.89
